sensor_id;sensor_type;location;lat;lon;timestamp;P1;durP1;ratioP1;P2;durP2;ratioP2
53875;SDS011;39789;53.216;5.624;2023-06-26T00:00:45;15.00;;;12.20;;
53875;SDS011;39789;53.216;5.624;2023-06-26T00:03:12;13.63;;;11.88;;
53875;SDS011;39789;53.216;5.624;2023-06-26T00:05:40;15.43;;;12.05;;
53875;SDS011;39789;53.216;5.624;2023-06-26T00:08:06;15.07;;;12.25;;
53875;SDS011;39789;53.216;5.624;2023-06-26T00:10:32;12.23;;;10.68;;
53875;SDS011;39789;53.216;5.624;2023-06-26T00:12:58;14.10;;;11.75;;
53875;SDS011;39789;53.216;5.624;2023-06-26T00:15:23;12.65;;;11.48;;
53875;SDS011;39789;53.216;5.624;2023-06-26T00:17:49;17.20;;;12.48;;
53875;SDS011;39789;53.216;5.624;2023-06-26T00:20:15;14.23;;;12.30;;
53875;SDS011;39789;53.216;5.624;2023-06-26T00:22:41;15.07;;;13.13;;
53875;SDS011;39789;53.216;5.624;2023-06-26T00:25:07;13.40;;;11.63;;
53875;SDS011;39789;53.216;5.624;2023-06-26T00:27:33;13.50;;;12.07;;
53875;SDS011;39789;53.216;5.624;2023-06-26T00:29:58;14.48;;;12.55;;
53875;SDS011;39789;53.216;5.624;2023-06-26T00:32:24;15.88;;;12.40;;
53875;SDS011;39789;53.216;5.624;2023-06-26T00:34:50;15.05;;;13.55;;
53875;SDS011;39789;53.216;5.624;2023-06-26T00:37:15;13.50;;;12.10;;
53875;SDS011;39789;53.216;5.624;2023-06-26T00:39:41;13.75;;;12.10;;
53875;SDS011;39789;53.216;5.624;2023-06-26T00:42:07;15.98;;;12.57;;
53875;SDS011;39789;53.216;5.624;2023-06-26T00:44:32;14.25;;;12.75;;
53875;SDS011;39789;53.216;5.624;2023-06-26T00:46:58;13.70;;;12.40;;
53875;SDS011;39789;53.216;5.624;2023-06-26T00:49:24;14.27;;;12.77;;
53875;SDS011;39789;53.216;5.624;2023-06-26T00:51:51;18.33;;;12.70;;
53875;SDS011;39789;53.216;5.624;2023-06-26T00:54:17;15.05;;;13.55;;
53875;SDS011;39789;53.216;5.624;2023-06-26T00:56:47;15.00;;;13.50;;
53875;SDS011;39789;53.216;5.624;2023-06-26T00:59:13;14.85;;;13.15;;
53875;SDS011;39789;53.216;5.624;2023-06-26T01:01:39;15.13;;;13.63;;
53875;SDS011;39789;53.216;5.624;2023-06-26T01:04:05;16.17;;;14.48;;
53875;SDS011;39789;53.216;5.624;2023-06-26T01:06:42;15.63;;;14.02;;
53875;SDS011;39789;53.216;5.624;2023-06-26T01:09:14;15.20;;;13.57;;
53875;SDS011;39789;53.216;5.624;2023-06-26T01:11:42;14.77;;;13.25;;
53875;SDS011;39789;53.216;5.624;2023-06-26T01:14:15;13.25;;;11.95;;
53875;SDS011;39789;53.216;5.624;2023-06-26T01:16:41;13.52;;;12.13;;
53875;SDS011;39789;53.216;5.624;2023-06-26T01:19:19;13.43;;;12.05;;
53875;SDS011;39789;53.216;5.624;2023-06-26T01:21:51;13.20;;;11.80;;
53875;SDS011;39789;53.216;5.624;2023-06-26T01:26:56;13.93;;;12.35;;
53875;SDS011;39789;53.216;5.624;2023-06-26T01:29:25;16.60;;;12.32;;
53875;SDS011;39789;53.216;5.624;2023-06-26T01:31:54;14.27;;;12.77;;
53875;SDS011;39789;53.216;5.624;2023-06-26T01:34:20;14.65;;;12.23;;
53875;SDS011;39789;53.216;5.624;2023-06-26T01:36:46;14.30;;;12.27;;
53875;SDS011;39789;53.216;5.624;2023-06-26T01:39:14;14.82;;;13.32;;
53875;SDS011;39789;53.216;5.624;2023-06-26T01:41:42;14.00;;;12.40;;
53875;SDS011;39789;53.216;5.624;2023-06-26T01:46:48;13.93;;;12.45;;
53875;SDS011;39789;53.216;5.624;2023-06-26T01:49:44;15.40;;;13.85;;
53875;SDS011;39789;53.216;5.624;2023-06-26T01:57:35;13.35;;;11.95;;
53875;SDS011;39789;53.216;5.624;2023-06-26T02:00:02;12.55;;;11.20;;
53875;SDS011;39789;53.216;5.624;2023-06-26T02:02:29;12.07;;;10.88;;
53875;SDS011;39789;53.216;5.624;2023-06-26T02:04:55;12.20;;;9.73;;
53875;SDS011;39789;53.216;5.624;2023-06-26T02:07:21;11.13;;;9.48;;
53875;SDS011;39789;53.216;5.624;2023-06-26T02:09:46;12.95;;;8.82;;
53875;SDS011;39789;53.216;5.624;2023-06-26T02:12:12;13.32;;;8.40;;
53875;SDS011;39789;53.216;5.624;2023-06-26T02:14:38;11.05;;;7.72;;
53875;SDS011;39789;53.216;5.624;2023-06-26T02:17:04;9.30;;;8.00;;
53875;SDS011;39789;53.216;5.624;2023-06-26T02:19:29;13.02;;;9.05;;
53875;SDS011;39789;53.216;5.624;2023-06-26T02:21:55;11.75;;;7.70;;
53875;SDS011;39789;53.216;5.624;2023-06-26T02:24:21;10.02;;;7.85;;
53875;SDS011;39789;53.216;5.624;2023-06-26T02:26:46;9.20;;;8.13;;
53875;SDS011;39789;53.216;5.624;2023-06-26T02:29:14;13.05;;;8.95;;
53875;SDS011;39789;53.216;5.624;2023-06-26T02:31:39;13.63;;;9.15;;
53875;SDS011;39789;53.216;5.624;2023-06-26T02:34:05;14.90;;;9.32;;
53875;SDS011;39789;53.216;5.624;2023-06-26T02:36:31;15.68;;;8.80;;
53875;SDS011;39789;53.216;5.624;2023-06-26T02:38:56;15.40;;;9.00;;
53875;SDS011;39789;53.216;5.624;2023-06-26T02:41:22;17.80;;;9.75;;
53875;SDS011;39789;53.216;5.624;2023-06-26T02:43:49;16.48;;;9.90;;
53875;SDS011;39789;53.216;5.624;2023-06-26T02:46:14;20.58;;;10.95;;
53875;SDS011;39789;53.216;5.624;2023-06-26T02:48:40;21.42;;;9.80;;
53875;SDS011;39789;53.216;5.624;2023-06-26T02:51:06;13.60;;;9.20;;
53875;SDS011;39789;53.216;5.624;2023-06-26T02:53:32;14.40;;;9.68;;
53875;SDS011;39789;53.216;5.624;2023-06-26T02:55:58;14.25;;;9.77;;
53875;SDS011;39789;53.216;5.624;2023-06-26T02:58:23;17.08;;;10.55;;
53875;SDS011;39789;53.216;5.624;2023-06-26T03:00:49;15.38;;;10.73;;
53875;SDS011;39789;53.216;5.624;2023-06-26T03:03:15;13.32;;;9.82;;
53875;SDS011;39789;53.216;5.624;2023-06-26T03:05:41;15.85;;;10.20;;
53875;SDS011;39789;53.216;5.624;2023-06-26T03:08:06;16.70;;;11.13;;
53875;SDS011;39789;53.216;5.624;2023-06-26T03:10:32;17.60;;;10.63;;
53875;SDS011;39789;53.216;5.624;2023-06-26T03:12:58;13.27;;;10.45;;
53875;SDS011;39789;53.216;5.624;2023-06-26T03:15:23;14.40;;;9.60;;
53875;SDS011;39789;53.216;5.624;2023-06-26T03:17:49;13.57;;;9.90;;
53875;SDS011;39789;53.216;5.624;2023-06-26T03:20:15;13.25;;;9.73;;
53875;SDS011;39789;53.216;5.624;2023-06-26T03:22:40;20.45;;;11.00;;
53875;SDS011;39789;53.216;5.624;2023-06-26T03:25:06;15.55;;;10.20;;
53875;SDS011;39789;53.216;5.624;2023-06-26T03:27:32;12.95;;;9.60;;
53875;SDS011;39789;53.216;5.624;2023-06-26T03:29:57;15.15;;;10.27;;
53875;SDS011;39789;53.216;5.624;2023-06-26T03:32:23;17.23;;;10.48;;
53875;SDS011;39789;53.216;5.624;2023-06-26T03:34:48;14.18;;;9.70;;
53875;SDS011;39789;53.216;5.624;2023-06-26T03:37:14;21.13;;;11.35;;
53875;SDS011;39789;53.216;5.624;2023-06-26T03:39:40;15.38;;;10.15;;
53875;SDS011;39789;53.216;5.624;2023-06-26T03:42:06;16.25;;;9.80;;
53875;SDS011;39789;53.216;5.624;2023-06-26T03:44:32;20.10;;;11.10;;
53875;SDS011;39789;53.216;5.624;2023-06-26T03:46:57;16.45;;;10.40;;
53875;SDS011;39789;53.216;5.624;2023-06-26T03:49:23;19.80;;;10.15;;
53875;SDS011;39789;53.216;5.624;2023-06-26T03:51:49;17.77;;;10.88;;
53875;SDS011;39789;53.216;5.624;2023-06-26T03:54:18;18.88;;;11.65;;
53875;SDS011;39789;53.216;5.624;2023-06-26T03:56:44;16.60;;;11.30;;
53875;SDS011;39789;53.216;5.624;2023-06-26T03:59:10;16.02;;;10.35;;
53875;SDS011;39789;53.216;5.624;2023-06-26T04:01:36;14.27;;;8.60;;
53875;SDS011;39789;53.216;5.624;2023-06-26T04:04:03;15.80;;;7.68;;
53875;SDS011;39789;53.216;5.624;2023-06-26T04:06:28;17.15;;;7.95;;
53875;SDS011;39789;53.216;5.624;2023-06-26T04:08:56;14.80;;;7.68;;
53875;SDS011;39789;53.216;5.624;2023-06-26T04:11:22;16.42;;;6.97;;
53875;SDS011;39789;53.216;5.624;2023-06-26T04:13:47;13.43;;;6.72;;
53875;SDS011;39789;53.216;5.624;2023-06-26T04:16:13;11.63;;;5.72;;
53875;SDS011;39789;53.216;5.624;2023-06-26T04:18:42;16.48;;;6.13;;
53875;SDS011;39789;53.216;5.624;2023-06-26T04:21:10;9.65;;;5.30;;
53875;SDS011;39789;53.216;5.624;2023-06-26T04:23:37;11.40;;;5.75;;
53875;SDS011;39789;53.216;5.624;2023-06-26T04:26:04;18.83;;;5.55;;
53875;SDS011;39789;53.216;5.624;2023-06-26T04:28:31;18.98;;;5.68;;
53875;SDS011;39789;53.216;5.624;2023-06-26T04:31:00;11.98;;;5.53;;
53875;SDS011;39789;53.216;5.624;2023-06-26T04:33:26;16.13;;;6.38;;
53875;SDS011;39789;53.216;5.624;2023-06-26T04:35:52;10.57;;;4.93;;
53875;SDS011;39789;53.216;5.624;2023-06-26T04:38:18;14.15;;;5.68;;
53875;SDS011;39789;53.216;5.624;2023-06-26T04:40:44;18.30;;;6.05;;
53875;SDS011;39789;53.216;5.624;2023-06-26T04:43:10;11.23;;;4.60;;
53875;SDS011;39789;53.216;5.624;2023-06-26T04:45:36;13.27;;;4.70;;
53875;SDS011;39789;53.216;5.624;2023-06-26T04:48:02;13.38;;;4.35;;
53875;SDS011;39789;53.216;5.624;2023-06-26T04:50:28;10.52;;;4.20;;
53875;SDS011;39789;53.216;5.624;2023-06-26T04:52:55;12.60;;;4.30;;
53875;SDS011;39789;53.216;5.624;2023-06-26T04:55:21;13.57;;;5.07;;
53875;SDS011;39789;53.216;5.624;2023-06-26T04:57:49;10.98;;;4.70;;
53875;SDS011;39789;53.216;5.624;2023-06-26T05:00:14;12.07;;;4.25;;
53875;SDS011;39789;53.216;5.624;2023-06-26T05:02:40;12.40;;;4.25;;
53875;SDS011;39789;53.216;5.624;2023-06-26T05:05:06;17.08;;;4.45;;
53875;SDS011;39789;53.216;5.624;2023-06-26T05:07:32;13.00;;;4.60;;
53875;SDS011;39789;53.216;5.624;2023-06-26T05:09:58;13.98;;;4.32;;
53875;SDS011;39789;53.216;5.624;2023-06-26T05:12:23;11.10;;;4.55;;
53875;SDS011;39789;53.216;5.624;2023-06-26T05:14:49;13.82;;;4.38;;
53875;SDS011;39789;53.216;5.624;2023-06-26T05:17:14;12.18;;;3.75;;
53875;SDS011;39789;53.216;5.624;2023-06-26T05:19:40;13.10;;;3.67;;
53875;SDS011;39789;53.216;5.624;2023-06-26T05:22:06;14.02;;;3.80;;
53875;SDS011;39789;53.216;5.624;2023-06-26T05:24:37;8.82;;;3.10;;
53875;SDS011;39789;53.216;5.624;2023-06-26T05:27:04;13.45;;;4.18;;
53875;SDS011;39789;53.216;5.624;2023-06-26T05:29:30;13.68;;;4.07;;
53875;SDS011;39789;53.216;5.624;2023-06-26T05:31:56;15.52;;;4.10;;
53875;SDS011;39789;53.216;5.624;2023-06-26T05:34:23;9.65;;;3.13;;
53875;SDS011;39789;53.216;5.624;2023-06-26T05:36:52;11.20;;;3.45;;
53875;SDS011;39789;53.216;5.624;2023-06-26T05:41:49;8.20;;;3.72;;
53875;SDS011;39789;53.216;5.624;2023-06-26T05:44:15;9.07;;;3.30;;
53875;SDS011;39789;53.216;5.624;2023-06-26T05:46:41;12.60;;;3.53;;
53875;SDS011;39789;53.216;5.624;2023-06-26T05:49:07;11.13;;;3.92;;
53875;SDS011;39789;53.216;5.624;2023-06-26T05:51:32;13.15;;;3.72;;
53875;SDS011;39789;53.216;5.624;2023-06-26T05:53:58;19.60;;;3.85;;
53875;SDS011;39789;53.216;5.624;2023-06-26T05:56:24;10.57;;;3.30;;
53875;SDS011;39789;53.216;5.624;2023-06-26T05:58:51;9.43;;;3.08;;
53875;SDS011;39789;53.216;5.624;2023-06-26T06:01:17;13.55;;;3.78;;
53875;SDS011;39789;53.216;5.624;2023-06-26T06:03:43;13.95;;;3.22;;
53875;SDS011;39789;53.216;5.624;2023-06-26T06:06:09;12.50;;;3.38;;
53875;SDS011;39789;53.216;5.624;2023-06-26T06:08:36;8.18;;;3.08;;
53875;SDS011;39789;53.216;5.624;2023-06-26T06:11:01;11.73;;;3.60;;
53875;SDS011;39789;53.216;5.624;2023-06-26T06:13:27;9.60;;;3.50;;
53875;SDS011;39789;53.216;5.624;2023-06-26T06:15:53;7.53;;;2.88;;
53875;SDS011;39789;53.216;5.624;2023-06-26T06:18:19;9.93;;;3.75;;
53875;SDS011;39789;53.216;5.624;2023-06-26T06:20:45;7.95;;;2.88;;
53875;SDS011;39789;53.216;5.624;2023-06-26T06:23:11;6.80;;;2.95;;
53875;SDS011;39789;53.216;5.624;2023-06-26T06:25:36;7.43;;;2.83;;
53875;SDS011;39789;53.216;5.624;2023-06-26T06:28:03;6.35;;;2.92;;
53875;SDS011;39789;53.216;5.624;2023-06-26T06:30:30;6.65;;;2.72;;
53875;SDS011;39789;53.216;5.624;2023-06-26T06:32:55;8.40;;;2.50;;
53875;SDS011;39789;53.216;5.624;2023-06-26T06:35:21;7.93;;;2.70;;
53875;SDS011;39789;53.216;5.624;2023-06-26T06:37:46;5.30;;;2.80;;
53875;SDS011;39789;53.216;5.624;2023-06-26T06:40:12;4.70;;;2.65;;
53875;SDS011;39789;53.216;5.624;2023-06-26T06:42:38;7.05;;;2.55;;
53875;SDS011;39789;53.216;5.624;2023-06-26T06:45:04;7.55;;;2.70;;
53875;SDS011;39789;53.216;5.624;2023-06-26T06:47:31;6.07;;;2.75;;
53875;SDS011;39789;53.216;5.624;2023-06-26T06:49:57;7.28;;;2.65;;
53875;SDS011;39789;53.216;5.624;2023-06-26T06:52:23;4.93;;;2.58;;
53875;SDS011;39789;53.216;5.624;2023-06-26T06:54:53;5.47;;;3.08;;
53875;SDS011;39789;53.216;5.624;2023-06-26T06:57:22;7.35;;;2.75;;
53875;SDS011;39789;53.216;5.624;2023-06-26T06:59:48;8.93;;;2.42;;
53875;SDS011;39789;53.216;5.624;2023-06-26T07:02:14;8.57;;;3.88;;
53875;SDS011;39789;53.216;5.624;2023-06-26T07:04:42;10.40;;;3.03;;
53875;SDS011;39789;53.216;5.624;2023-06-26T07:07:07;11.05;;;2.90;;
53875;SDS011;39789;53.216;5.624;2023-06-26T07:09:33;9.05;;;2.63;;
53875;SDS011;39789;53.216;5.624;2023-06-26T07:11:59;6.13;;;2.67;;
53875;SDS011;39789;53.216;5.624;2023-06-26T07:14:25;5.07;;;2.70;;
53875;SDS011;39789;53.216;5.624;2023-06-26T07:16:51;6.57;;;2.70;;
53875;SDS011;39789;53.216;5.624;2023-06-26T07:19:16;9.68;;;3.40;;
53875;SDS011;39789;53.216;5.624;2023-06-26T07:21:42;6.22;;;3.33;;
53875;SDS011;39789;53.216;5.624;2023-06-26T07:24:09;8.55;;;3.08;;
53875;SDS011;39789;53.216;5.624;2023-06-26T07:26:35;7.50;;;3.30;;
53875;SDS011;39789;53.216;5.624;2023-06-26T07:29:01;7.85;;;3.05;;
53875;SDS011;39789;53.216;5.624;2023-06-26T07:31:27;10.57;;;2.83;;
53875;SDS011;39789;53.216;5.624;2023-06-26T07:33:52;10.85;;;3.15;;
53875;SDS011;39789;53.216;5.624;2023-06-26T07:36:18;6.35;;;3.30;;
53875;SDS011;39789;53.216;5.624;2023-06-26T07:38:43;10.13;;;2.85;;
53875;SDS011;39789;53.216;5.624;2023-06-26T07:41:09;7.28;;;2.58;;
53875;SDS011;39789;53.216;5.624;2023-06-26T07:43:34;5.78;;;2.95;;
53875;SDS011;39789;53.216;5.624;2023-06-26T07:46:00;5.43;;;2.60;;
53875;SDS011;39789;53.216;5.624;2023-06-26T07:48:25;10.25;;;4.00;;
53875;SDS011;39789;53.216;5.624;2023-06-26T07:50:51;10.27;;;3.05;;
53875;SDS011;39789;53.216;5.624;2023-06-26T07:53:17;9.32;;;2.80;;
53875;SDS011;39789;53.216;5.624;2023-06-26T07:55:49;8.48;;;3.45;;
53875;SDS011;39789;53.216;5.624;2023-06-26T07:58:15;9.10;;;2.97;;
53875;SDS011;39789;53.216;5.624;2023-06-26T08:00:41;10.82;;;3.05;;
53875;SDS011;39789;53.216;5.624;2023-06-26T08:03:07;8.25;;;2.78;;
53875;SDS011;39789;53.216;5.624;2023-06-26T08:05:32;6.68;;;3.17;;
53875;SDS011;39789;53.216;5.624;2023-06-26T08:07:58;8.07;;;4.07;;
53875;SDS011;39789;53.216;5.624;2023-06-26T08:10:26;8.60;;;3.53;;
53875;SDS011;39789;53.216;5.624;2023-06-26T08:12:52;6.60;;;3.30;;
53875;SDS011;39789;53.216;5.624;2023-06-26T08:15:18;7.03;;;3.67;;
53875;SDS011;39789;53.216;5.624;2023-06-26T08:17:43;9.18;;;4.05;;
53875;SDS011;39789;53.216;5.624;2023-06-26T08:20:10;7.32;;;4.30;;
53875;SDS011;39789;53.216;5.624;2023-06-26T08:22:36;10.23;;;4.13;;
53875;SDS011;39789;53.216;5.624;2023-06-26T08:25:02;8.52;;;3.90;;
53875;SDS011;39789;53.216;5.624;2023-06-26T08:27:29;12.25;;;3.95;;
53875;SDS011;39789;53.216;5.624;2023-06-26T08:29:54;11.90;;;4.30;;
53875;SDS011;39789;53.216;5.624;2023-06-26T08:32:20;8.13;;;4.00;;
53875;SDS011;39789;53.216;5.624;2023-06-26T08:34:46;7.55;;;3.40;;
53875;SDS011;39789;53.216;5.624;2023-06-26T08:37:11;9.43;;;3.80;;
53875;SDS011;39789;53.216;5.624;2023-06-26T08:39:37;9.38;;;4.15;;
53875;SDS011;39789;53.216;5.624;2023-06-26T08:42:02;7.10;;;3.53;;
53875;SDS011;39789;53.216;5.624;2023-06-26T08:44:28;9.50;;;4.00;;
53875;SDS011;39789;53.216;5.624;2023-06-26T08:46:54;7.60;;;3.55;;
53875;SDS011;39789;53.216;5.624;2023-06-26T08:49:25;7.93;;;3.38;;
53875;SDS011;39789;53.216;5.624;2023-06-26T08:52:22;9.27;;;3.83;;
53875;SDS011;39789;53.216;5.624;2023-06-26T08:54:51;6.15;;;3.88;;
53875;SDS011;39789;53.216;5.624;2023-06-26T08:57:20;7.82;;;3.80;;
53875;SDS011;39789;53.216;5.624;2023-06-26T08:59:48;8.18;;;4.43;;
53875;SDS011;39789;53.216;5.624;2023-06-26T09:02:14;8.98;;;4.22;;
53875;SDS011;39789;53.216;5.624;2023-06-26T09:04:40;10.18;;;4.55;;
53875;SDS011;39789;53.216;5.624;2023-06-26T09:07:06;7.93;;;4.22;;
53875;SDS011;39789;53.216;5.624;2023-06-26T09:09:32;7.88;;;4.47;;
53875;SDS011;39789;53.216;5.624;2023-06-26T09:11:58;9.05;;;4.60;;
53875;SDS011;39789;53.216;5.624;2023-06-26T09:14:24;8.35;;;4.18;;
53875;SDS011;39789;53.216;5.624;2023-06-26T09:16:50;8.07;;;3.92;;
53875;SDS011;39789;53.216;5.624;2023-06-26T09:19:15;8.15;;;3.78;;
53875;SDS011;39789;53.216;5.624;2023-06-26T09:21:41;7.97;;;3.75;;
53875;SDS011;39789;53.216;5.624;2023-06-26T09:24:08;9.60;;;3.47;;
53875;SDS011;39789;53.216;5.624;2023-06-26T09:26:38;6.28;;;4.03;;
53875;SDS011;39789;53.216;5.624;2023-06-26T09:29:04;7.07;;;2.83;;
53875;SDS011;39789;53.216;5.624;2023-06-26T09:31:32;9.05;;;2.78;;
53875;SDS011;39789;53.216;5.624;2023-06-26T09:33:59;10.70;;;3.25;;
53875;SDS011;39789;53.216;5.624;2023-06-26T09:36:27;8.73;;;2.63;;
53875;SDS011;39789;53.216;5.624;2023-06-26T09:38:54;7.57;;;2.72;;
53875;SDS011;39789;53.216;5.624;2023-06-26T09:41:22;8.23;;;2.70;;
53875;SDS011;39789;53.216;5.624;2023-06-26T09:43:48;8.10;;;2.60;;
53875;SDS011;39789;53.216;5.624;2023-06-26T09:46:25;11.13;;;2.63;;
53875;SDS011;39789;53.216;5.624;2023-06-26T09:49:01;9.38;;;3.13;;
53875;SDS011;39789;53.216;5.624;2023-06-26T09:51:36;8.23;;;2.63;;
53875;SDS011;39789;53.216;5.624;2023-06-26T09:54:04;8.95;;;2.70;;
53875;SDS011;39789;53.216;5.624;2023-06-26T09:56:30;12.02;;;3.17;;
53875;SDS011;39789;53.216;5.624;2023-06-26T09:58:58;6.60;;;2.30;;
53875;SDS011;39789;53.216;5.624;2023-06-26T10:01:26;11.00;;;2.55;;
53875;SDS011;39789;53.216;5.624;2023-06-26T10:03:53;6.35;;;2.50;;
53875;SDS011;39789;53.216;5.624;2023-06-26T10:06:27;12.65;;;3.35;;
53875;SDS011;39789;53.216;5.624;2023-06-26T10:08:56;9.88;;;3.28;;
53875;SDS011;39789;53.216;5.624;2023-06-26T10:11:24;9.27;;;2.50;;
53875;SDS011;39789;53.216;5.624;2023-06-26T10:13:53;5.72;;;2.22;;
53875;SDS011;39789;53.216;5.624;2023-06-26T10:16:22;5.40;;;2.00;;
53875;SDS011;39789;53.216;5.624;2023-06-26T10:18:52;8.00;;;2.38;;
53875;SDS011;39789;53.216;5.624;2023-06-26T10:21:21;7.55;;;2.55;;
53875;SDS011;39789;53.216;5.624;2023-06-26T10:23:48;7.32;;;2.83;;
53875;SDS011;39789;53.216;5.624;2023-06-26T10:26:16;8.82;;;2.60;;
53875;SDS011;39789;53.216;5.624;2023-06-26T10:28:46;6.78;;;2.25;;
53875;SDS011;39789;53.216;5.624;2023-06-26T10:31:18;8.65;;;2.40;;
53875;SDS011;39789;53.216;5.624;2023-06-26T10:33:47;6.20;;;2.75;;
53875;SDS011;39789;53.216;5.624;2023-06-26T10:36:18;6.93;;;2.75;;
53875;SDS011;39789;53.216;5.624;2023-06-26T10:38:52;9.35;;;2.60;;
53875;SDS011;39789;53.216;5.624;2023-06-26T10:41:30;8.20;;;2.60;;
53875;SDS011;39789;53.216;5.624;2023-06-26T10:46:48;7.93;;;2.85;;
53875;SDS011;39789;53.216;5.624;2023-06-26T10:49:21;9.02;;;2.40;;
53875;SDS011;39789;53.216;5.624;2023-06-26T10:51:50;8.07;;;2.72;;
53875;SDS011;39789;53.216;5.624;2023-06-26T10:54:17;10.55;;;3.20;;
53875;SDS011;39789;53.216;5.624;2023-06-26T10:59:19;7.68;;;2.97;;
53875;SDS011;39789;53.216;5.624;2023-06-26T11:01:47;5.90;;;2.60;;
53875;SDS011;39789;53.216;5.624;2023-06-26T11:07:17;9.15;;;3.13;;
53875;SDS011;39789;53.216;5.624;2023-06-26T11:09:59;6.60;;;2.58;;
53875;SDS011;39789;53.216;5.624;2023-06-26T11:12:35;9.10;;;2.63;;
53875;SDS011;39789;53.216;5.624;2023-06-26T11:15:01;7.63;;;2.88;;
53875;SDS011;39789;53.216;5.624;2023-06-26T11:17:28;10.27;;;3.13;;
53875;SDS011;39789;53.216;5.624;2023-06-26T11:19:54;6.90;;;2.70;;
53875;SDS011;39789;53.216;5.624;2023-06-26T11:22:20;10.02;;;2.78;;
53875;SDS011;39789;53.216;5.624;2023-06-26T11:24:49;5.97;;;2.35;;
53875;SDS011;39789;53.216;5.624;2023-06-26T11:27:18;6.80;;;2.80;;
53875;SDS011;39789;53.216;5.624;2023-06-26T11:29:47;8.68;;;2.80;;
53875;SDS011;39789;53.216;5.624;2023-06-26T11:32:16;10.60;;;2.92;;
53875;SDS011;39789;53.216;5.624;2023-06-26T11:34:41;9.07;;;3.17;;
53875;SDS011;39789;53.216;5.624;2023-06-26T11:37:08;10.10;;;3.67;;
53875;SDS011;39789;53.216;5.624;2023-06-26T11:39:34;8.27;;;2.75;;
53875;SDS011;39789;53.216;5.624;2023-06-26T11:42:00;8.27;;;2.70;;
53875;SDS011;39789;53.216;5.624;2023-06-26T11:44:30;8.77;;;3.15;;
53875;SDS011;39789;53.216;5.624;2023-06-26T11:46:56;7.30;;;2.65;;
53875;SDS011;39789;53.216;5.624;2023-06-26T11:49:22;8.57;;;3.35;;
53875;SDS011;39789;53.216;5.624;2023-06-26T11:51:50;22.70;;;2.70;;
53875;SDS011;39789;53.216;5.624;2023-06-26T11:54:22;6.55;;;2.58;;
53875;SDS011;39789;53.216;5.624;2023-06-26T11:56:56;8.73;;;2.70;;
53875;SDS011;39789;53.216;5.624;2023-06-26T11:59:23;13.85;;;3.40;;
53875;SDS011;39789;53.216;5.624;2023-06-26T12:01:56;6.30;;;2.60;;
53875;SDS011;39789;53.216;5.624;2023-06-26T12:04:22;9.02;;;2.38;;
53875;SDS011;39789;53.216;5.624;2023-06-26T12:06:49;9.05;;;2.80;;
53875;SDS011;39789;53.216;5.624;2023-06-26T12:09:17;7.25;;;2.60;;
53875;SDS011;39789;53.216;5.624;2023-06-26T12:11:44;10.65;;;3.05;;
53875;SDS011;39789;53.216;5.624;2023-06-26T12:14:15;11.98;;;3.05;;
53875;SDS011;39789;53.216;5.624;2023-06-26T12:16:43;6.07;;;2.65;;
53875;SDS011;39789;53.216;5.624;2023-06-26T12:19:09;10.13;;;2.90;;
53875;SDS011;39789;53.216;5.624;2023-06-26T12:24:05;7.72;;;2.90;;
53875;SDS011;39789;53.216;5.624;2023-06-26T12:26:32;6.13;;;2.60;;
53875;SDS011;39789;53.216;5.624;2023-06-26T12:29:17;7.15;;;2.80;;
53875;SDS011;39789;53.216;5.624;2023-06-26T12:31:45;8.20;;;2.70;;
53875;SDS011;39789;53.216;5.624;2023-06-26T12:34:14;7.95;;;2.95;;
53875;SDS011;39789;53.216;5.624;2023-06-26T12:36:49;9.32;;;2.85;;
53875;SDS011;39789;53.216;5.624;2023-06-26T12:39:16;6.63;;;3.40;;
53875;SDS011;39789;53.216;5.624;2023-06-26T12:41:53;7.97;;;2.85;;
53875;SDS011;39789;53.216;5.624;2023-06-26T12:44:25;10.45;;;4.00;;
53875;SDS011;39789;53.216;5.624;2023-06-26T12:46:56;8.73;;;2.85;;
53875;SDS011;39789;53.216;5.624;2023-06-26T12:49:42;9.20;;;2.97;;
53875;SDS011;39789;53.216;5.624;2023-06-26T12:52:09;6.68;;;3.08;;
53875;SDS011;39789;53.216;5.624;2023-06-26T12:54:37;9.95;;;2.90;;
53875;SDS011;39789;53.216;5.624;2023-06-26T12:57:04;10.63;;;2.95;;
53875;SDS011;39789;53.216;5.624;2023-06-26T12:59:30;9.73;;;2.75;;
53875;SDS011;39789;53.216;5.624;2023-06-26T13:01:57;9.27;;;3.17;;
53875;SDS011;39789;53.216;5.624;2023-06-26T13:04:23;9.27;;;2.55;;
53875;SDS011;39789;53.216;5.624;2023-06-26T13:06:49;11.32;;;2.75;;
53875;SDS011;39789;53.216;5.624;2023-06-26T13:09:15;7.38;;;2.70;;
53875;SDS011;39789;53.216;5.624;2023-06-26T13:11:41;14.25;;;2.53;;
53875;SDS011;39789;53.216;5.624;2023-06-26T13:14:06;5.95;;;2.50;;
53875;SDS011;39789;53.216;5.624;2023-06-26T13:16:32;8.50;;;2.65;;
53875;SDS011;39789;53.216;5.624;2023-06-26T13:18:58;8.30;;;2.25;;
53875;SDS011;39789;53.216;5.624;2023-06-26T13:21:24;10.25;;;3.10;;
53875;SDS011;39789;53.216;5.624;2023-06-26T13:23:50;14.48;;;3.22;;
53875;SDS011;39789;53.216;5.624;2023-06-26T13:26:16;10.18;;;2.50;;
53875;SDS011;39789;53.216;5.624;2023-06-26T13:28:41;8.55;;;2.92;;
53875;SDS011;39789;53.216;5.624;2023-06-26T13:31:07;11.05;;;2.53;;
53875;SDS011;39789;53.216;5.624;2023-06-26T13:33:32;8.48;;;2.83;;
53875;SDS011;39789;53.216;5.624;2023-06-26T13:35:58;9.10;;;2.72;;
53875;SDS011;39789;53.216;5.624;2023-06-26T13:38:24;7.97;;;2.88;;
53875;SDS011;39789;53.216;5.624;2023-06-26T13:40:51;6.30;;;2.78;;
53875;SDS011;39789;53.216;5.624;2023-06-26T13:43:17;8.00;;;2.45;;
53875;SDS011;39789;53.216;5.624;2023-06-26T13:45:43;13.57;;;3.83;;
53875;SDS011;39789;53.216;5.624;2023-06-26T13:48:08;10.68;;;2.58;;
53875;SDS011;39789;53.216;5.624;2023-06-26T13:50:34;11.43;;;3.30;;
53875;SDS011;39789;53.216;5.624;2023-06-26T13:52:59;7.47;;;3.17;;
53875;SDS011;39789;53.216;5.624;2023-06-26T13:55:25;7.35;;;2.83;;
53875;SDS011;39789;53.216;5.624;2023-06-26T13:57:51;11.18;;;2.80;;
53875;SDS011;39789;53.216;5.624;2023-06-26T14:00:16;9.38;;;2.40;;
53875;SDS011;39789;53.216;5.624;2023-06-26T14:02:47;11.38;;;2.47;;
53875;SDS011;39789;53.216;5.624;2023-06-26T14:05:12;9.25;;;2.25;;
53875;SDS011;39789;53.216;5.624;2023-06-26T14:07:38;9.43;;;2.78;;
53875;SDS011;39789;53.216;5.624;2023-06-26T14:10:04;10.70;;;2.70;;
53875;SDS011;39789;53.216;5.624;2023-06-26T14:12:31;7.18;;;2.47;;
53875;SDS011;39789;53.216;5.624;2023-06-26T14:14:57;9.32;;;2.28;;
53875;SDS011;39789;53.216;5.624;2023-06-26T14:17:24;10.35;;;2.78;;
53875;SDS011;39789;53.216;5.624;2023-06-26T14:19:54;9.45;;;2.63;;
53875;SDS011;39789;53.216;5.624;2023-06-26T14:22:19;7.47;;;2.20;;
53875;SDS011;39789;53.216;5.624;2023-06-26T14:24:45;11.65;;;2.83;;
53875;SDS011;39789;53.216;5.624;2023-06-26T14:27:11;6.55;;;2.13;;
53875;SDS011;39789;53.216;5.624;2023-06-26T14:29:37;9.73;;;2.53;;
53875;SDS011;39789;53.216;5.624;2023-06-26T14:32:03;8.63;;;2.90;;
53875;SDS011;39789;53.216;5.624;2023-06-26T14:34:29;7.43;;;2.22;;
53875;SDS011;39789;53.216;5.624;2023-06-26T14:36:54;8.90;;;2.60;;
53875;SDS011;39789;53.216;5.624;2023-06-26T14:39:20;6.68;;;2.13;;
53875;SDS011;39789;53.216;5.624;2023-06-26T14:41:46;7.57;;;2.30;;
53875;SDS011;39789;53.216;5.624;2023-06-26T14:44:15;9.48;;;2.53;;
53875;SDS011;39789;53.216;5.624;2023-06-26T14:46:41;7.03;;;2.55;;
53875;SDS011;39789;53.216;5.624;2023-06-26T14:49:07;5.95;;;2.40;;
53875;SDS011;39789;53.216;5.624;2023-06-26T14:51:33;6.30;;;1.88;;
53875;SDS011;39789;53.216;5.624;2023-06-26T14:53:59;7.93;;;2.58;;
53875;SDS011;39789;53.216;5.624;2023-06-26T14:56:25;6.90;;;2.00;;
53875;SDS011;39789;53.216;5.624;2023-06-26T14:58:50;5.15;;;1.85;;
53875;SDS011;39789;53.216;5.624;2023-06-26T15:01:17;6.38;;;2.35;;